sensor_id;sensor_type;location;lat;lon;timestamp;temperature;humidity
68026;SHT31;54819;48.030;14.710;2023-09-18T00:01:13;17.39;79.73
68026;SHT31;54819;48.030;14.710;2023-09-18T00:03:41;17.36;79.73
68026;SHT31;54819;48.030;14.710;2023-09-18T00:06:07;17.33;79.73
68026;SHT31;54819;48.030;14.710;2023-09-18T00:08:35;17.29;79.87
68026;SHT31;54819;48.030;14.710;2023-09-18T00:11:02;17.24;80.08
68026;SHT31;54819;48.030;14.710;2023-09-18T00:13:29;17.20;79.99
68026;SHT31;54819;48.030;14.710;2023-09-18T00:15:56;17.16;80.14
68026;SHT31;54819;48.030;14.710;2023-09-18T00:18:26;17.11;80.34
68026;SHT31;54819;48.030;14.710;2023-09-18T00:20:53;17.05;80.38
68026;SHT31;54819;48.030;14.710;2023-09-18T00:23:20;17.00;80.46
68026;SHT31;54819;48.030;14.710;2023-09-18T00:25:47;16.94;80.64
68026;SHT31;54819;48.030;14.710;2023-09-18T00:28:14;16.87;80.71
68026;SHT31;54819;48.030;14.710;2023-09-18T00:30:47;16.81;80.79
68026;SHT31;54819;48.030;14.710;2023-09-18T00:33:16;16.75;80.95
68026;SHT31;54819;48.030;14.710;2023-09-18T00:35:49;16.70;81.13
68026;SHT31;54819;48.030;14.710;2023-09-18T00:38:17;16.65;81.25
68026;SHT31;54819;48.030;14.710;2023-09-18T00:40:45;16.59;81.29
68026;SHT31;54819;48.030;14.710;2023-09-18T00:43:11;16.55;81.24
68026;SHT31;54819;48.030;14.710;2023-09-18T00:45:40;16.49;81.33
68026;SHT31;54819;48.030;14.710;2023-09-18T00:48:10;16.46;81.44
68026;SHT31;54819;48.030;14.710;2023-09-18T00:50:38;16.44;81.61
68026;SHT31;54819;48.030;14.710;2023-09-18T00:53:07;16.44;81.63
68026;SHT31;54819;48.030;14.710;2023-09-18T00:55:36;16.43;81.80
68026;SHT31;54819;48.030;14.710;2023-09-18T00:58:04;16.41;81.81
68026;SHT31;54819;48.030;14.710;2023-09-18T01:00:31;16.40;81.88
68026;SHT31;54819;48.030;14.710;2023-09-18T01:02:58;16.40;81.95
68026;SHT31;54819;48.030;14.710;2023-09-18T01:05:27;16.39;82.00
68026;SHT31;54819;48.030;14.710;2023-09-18T01:07:54;16.39;82.01
68026;SHT31;54819;48.030;14.710;2023-09-18T01:10:21;16.40;82.02
68026;SHT31;54819;48.030;14.710;2023-09-18T01:13:12;16.41;82.05
68026;SHT31;54819;48.030;14.710;2023-09-18T01:15:44;16.40;82.06
68026;SHT31;54819;48.030;14.710;2023-09-18T01:18:15;16.42;81.97
68026;SHT31;54819;48.030;14.710;2023-09-18T01:20:44;16.42;81.95
68026;SHT31;54819;48.030;14.710;2023-09-18T01:23:11;16.41;82.11
68026;SHT31;54819;48.030;14.710;2023-09-18T01:25:40;16.40;82.11
68026;SHT31;54819;48.030;14.710;2023-09-18T01:28:07;16.40;82.20
68026;SHT31;54819;48.030;14.710;2023-09-18T01:30:34;16.40;82.12
68026;SHT31;54819;48.030;14.710;2023-09-18T01:33:01;16.40;82.01
68026;SHT31;54819;48.030;14.710;2023-09-18T01:35:28;16.40;81.97
68026;SHT31;54819;48.030;14.710;2023-09-18T01:37:58;16.38;81.98
68026;SHT31;54819;48.030;14.710;2023-09-18T01:40:26;16.36;81.95
68026;SHT31;54819;48.030;14.710;2023-09-18T01:42:53;16.38;81.88
68026;SHT31;54819;48.030;14.710;2023-09-18T01:45:20;16.36;81.87
68026;SHT31;54819;48.030;14.710;2023-09-18T01:47:46;16.33;81.91
68026;SHT31;54819;48.030;14.710;2023-09-18T01:50:13;16.28;81.93
68026;SHT31;54819;48.030;14.710;2023-09-18T01:52:40;16.25;82.02
68026;SHT31;54819;48.030;14.710;2023-09-18T01:55:07;16.21;82.02
68026;SHT31;54819;48.030;14.710;2023-09-18T01:57:34;16.18;82.01
68026;SHT31;54819;48.030;14.710;2023-09-18T02:00:02;16.15;82.05
68026;SHT31;54819;48.030;14.710;2023-09-18T02:02:37;16.12;82.07
68026;SHT31;54819;48.030;14.710;2023-09-18T02:05:10;16.10;82.16
68026;SHT31;54819;48.030;14.710;2023-09-18T02:07:38;16.07;82.16
68026;SHT31;54819;48.030;14.710;2023-09-18T02:10:05;16.04;82.16
68026;SHT31;54819;48.030;14.710;2023-09-18T02:12:33;16.01;82.20
68026;SHT31;54819;48.030;14.710;2023-09-18T02:15:01;15.98;82.23
68026;SHT31;54819;48.030;14.710;2023-09-18T02:17:32;15.95;82.43
68026;SHT31;54819;48.030;14.710;2023-09-18T02:19:59;15.93;82.42
68026;SHT31;54819;48.030;14.710;2023-09-18T02:22:31;15.90;82.39
68026;SHT31;54819;48.030;14.710;2023-09-18T02:24:59;15.89;82.57
68026;SHT31;54819;48.030;14.710;2023-09-18T02:27:26;15.88;82.65
68026;SHT31;54819;48.030;14.710;2023-09-18T02:29:53;15.88;82.67
68026;SHT31;54819;48.030;14.710;2023-09-18T02:32:20;15.87;82.79
68026;SHT31;54819;48.030;14.710;2023-09-18T02:34:47;15.86;82.89
68026;SHT31;54819;48.030;14.710;2023-09-18T02:37:14;15.85;82.88
68026;SHT31;54819;48.030;14.710;2023-09-18T02:39:40;15.83;82.95
68026;SHT31;54819;48.030;14.710;2023-09-18T02:42:07;15.82;83.00
68026;SHT31;54819;48.030;14.710;2023-09-18T02:44:34;15.83;83.00
68026;SHT31;54819;48.030;14.710;2023-09-18T02:47:01;15.82;83.00
68026;SHT31;54819;48.030;14.710;2023-09-18T02:49:28;15.83;82.92
68026;SHT31;54819;48.030;14.710;2023-09-18T02:51:56;15.83;82.93
68026;SHT31;54819;48.030;14.710;2023-09-18T02:54:23;15.84;82.93
68026;SHT31;54819;48.030;14.710;2023-09-18T02:56:49;15.83;82.86
68026;SHT31;54819;48.030;14.710;2023-09-18T02:59:16;15.84;82.80
68026;SHT31;54819;48.030;14.710;2023-09-18T03:01:43;15.83;82.70
68026;SHT31;54819;48.030;14.710;2023-09-18T03:04:09;15.81;82.70
68026;SHT31;54819;48.030;14.710;2023-09-18T03:06:38;15.81;82.68
68026;SHT31;54819;48.030;14.710;2023-09-18T03:09:06;15.81;82.73
68026;SHT31;54819;48.030;14.710;2023-09-18T03:11:33;15.80;82.80
68026;SHT31;54819;48.030;14.710;2023-09-18T03:14:00;15.84;82.71
68026;SHT31;54819;48.030;14.710;2023-09-18T03:16:26;15.84;82.50
68026;SHT31;54819;48.030;14.710;2023-09-18T03:18:53;15.79;82.40
68026;SHT31;54819;48.030;14.710;2023-09-18T03:21:21;15.74;82.41
68026;SHT31;54819;48.030;14.710;2023-09-18T03:23:48;15.69;82.56
68026;SHT31;54819;48.030;14.710;2023-09-18T03:26:15;15.64;82.62
68026;SHT31;54819;48.030;14.710;2023-09-18T03:28:41;15.60;82.75
68026;SHT31;54819;48.030;14.710;2023-09-18T03:31:08;15.56;82.80
68026;SHT31;54819;48.030;14.710;2023-09-18T03:33:36;15.52;82.80
68026;SHT31;54819;48.030;14.710;2023-09-18T03:36:03;15.47;82.87
68026;SHT31;54819;48.030;14.710;2023-09-18T03:38:32;15.42;82.91
68026;SHT31;54819;48.030;14.710;2023-09-18T03:41:02;15.37;83.17
68026;SHT31;54819;48.030;14.710;2023-09-18T03:43:29;15.31;83.20
68026;SHT31;54819;48.030;14.710;2023-09-18T03:46:02;15.25;83.27
68026;SHT31;54819;48.030;14.710;2023-09-18T03:48:38;15.19;83.43
68026;SHT31;54819;48.030;14.710;2023-09-18T03:51:05;15.13;83.51
68026;SHT31;54819;48.030;14.710;2023-09-18T03:53:33;15.09;83.63
68026;SHT31;54819;48.030;14.710;2023-09-18T03:56:00;15.06;83.75
68026;SHT31;54819;48.030;14.710;2023-09-18T03:58:27;15.01;83.83
68026;SHT31;54819;48.030;14.710;2023-09-18T04:00:54;14.96;83.88
68026;SHT31;54819;48.030;14.710;2023-09-18T04:03:22;14.92;83.90
68026;SHT31;54819;48.030;14.710;2023-09-18T04:05:48;14.91;84.45
68026;SHT31;54819;48.030;14.710;2023-09-18T04:08:15;14.90;84.38
68026;SHT31;54819;48.030;14.710;2023-09-18T04:10:42;14.93;84.27
68026;SHT31;54819;48.030;14.710;2023-09-18T04:13:10;14.97;84.30
68026;SHT31;54819;48.030;14.710;2023-09-18T04:15:37;14.99;84.29
68026;SHT31;54819;48.030;14.710;2023-09-18T04:18:04;15.01;84.30
68026;SHT31;54819;48.030;14.710;2023-09-18T04:20:32;15.03;84.40
68026;SHT31;54819;48.030;14.710;2023-09-18T04:23:18;15.05;84.39
68026;SHT31;54819;48.030;14.710;2023-09-18T04:25:47;15.04;84.36
68026;SHT31;54819;48.030;14.710;2023-09-18T04:28:16;15.06;84.40
68026;SHT31;54819;48.030;14.710;2023-09-18T04:30:45;15.06;84.33
68026;SHT31;54819;48.030;14.710;2023-09-18T04:33:15;15.07;84.23
68026;SHT31;54819;48.030;14.710;2023-09-18T04:35:43;15.08;84.21
68026;SHT31;54819;48.030;14.710;2023-09-18T04:38:12;15.09;84.22
68026;SHT31;54819;48.030;14.710;2023-09-18T04:40:41;15.09;84.23
68026;SHT31;54819;48.030;14.710;2023-09-18T04:43:07;15.11;84.13
68026;SHT31;54819;48.030;14.710;2023-09-18T04:45:34;15.10;84.10
68026;SHT31;54819;48.030;14.710;2023-09-18T04:48:01;15.11;84.10
68026;SHT31;54819;48.030;14.710;2023-09-18T04:50:30;15.12;84.10
68026;SHT31;54819;48.030;14.710;2023-09-18T04:52:57;15.13;84.02
68026;SHT31;54819;48.030;14.710;2023-09-18T04:55:25;15.16;83.95
68026;SHT31;54819;48.030;14.710;2023-09-18T04:57:51;15.18;83.88
68026;SHT31;54819;48.030;14.710;2023-09-18T05:00:19;15.19;83.81
68026;SHT31;54819;48.030;14.710;2023-09-18T05:02:50;15.21;83.76
68026;SHT31;54819;48.030;14.710;2023-09-18T05:05:17;15.22;83.76
68026;SHT31;54819;48.030;14.710;2023-09-18T05:07:45;15.23;83.80
68026;SHT31;54819;48.030;14.710;2023-09-18T05:10:11;15.22;83.74
68026;SHT31;54819;48.030;14.710;2023-09-18T05:12:38;15.20;83.70
68026;SHT31;54819;48.030;14.710;2023-09-18T05:15:05;15.20;83.61
68026;SHT31;54819;48.030;14.710;2023-09-18T05:17:43;15.19;83.55
68026;SHT31;54819;48.030;14.710;2023-09-18T05:20:14;15.19;83.60
68026;SHT31;54819;48.030;14.710;2023-09-18T05:22:44;15.23;83.66
68026;SHT31;54819;48.030;14.710;2023-09-18T05:25:11;15.25;83.65
68026;SHT31;54819;48.030;14.710;2023-09-18T05:27:41;15.28;83.70
68026;SHT31;54819;48.030;14.710;2023-09-18T05:30:12;15.32;83.71
68026;SHT31;54819;48.030;14.710;2023-09-18T05:32:40;15.35;83.75
68026;SHT31;54819;48.030;14.710;2023-09-18T05:35:07;15.38;83.66
68026;SHT31;54819;48.030;14.710;2023-09-18T05:37:36;15.42;83.58
68026;SHT31;54819;48.030;14.710;2023-09-18T05:40:08;15.45;83.53
68026;SHT31;54819;48.030;14.710;2023-09-18T05:42:37;15.50;83.56
68026;SHT31;54819;48.030;14.710;2023-09-18T05:45:04;15.57;83.64
68026;SHT31;54819;48.030;14.710;2023-09-18T05:47:32;15.64;83.58
68026;SHT31;54819;48.030;14.710;2023-09-18T05:49:59;15.74;83.44
68026;SHT31;54819;48.030;14.710;2023-09-18T05:52:26;15.85;83.29
68026;SHT31;54819;48.030;14.710;2023-09-18T05:54:53;15.96;83.13
68026;SHT31;54819;48.030;14.710;2023-09-18T05:57:19;16.07;83.23
68026;SHT31;54819;48.030;14.710;2023-09-18T05:59:46;16.19;83.28
68026;SHT31;54819;48.030;14.710;2023-09-18T06:02:13;16.35;82.99
68026;SHT31;54819;48.030;14.710;2023-09-18T06:04:42;16.52;82.77
68026;SHT31;54819;48.030;14.710;2023-09-18T06:07:09;16.68;82.56
68026;SHT31;54819;48.030;14.710;2023-09-18T06:09:36;16.84;82.32
68026;SHT31;54819;48.030;14.710;2023-09-18T06:12:04;17.00;82.15
68026;SHT31;54819;48.030;14.710;2023-09-18T06:14:31;17.17;81.82
68026;SHT31;54819;48.030;14.710;2023-09-18T06:17:01;17.33;81.51
68026;SHT31;54819;48.030;14.710;2023-09-18T06:19:28;17.49;81.34
68026;SHT31;54819;48.030;14.710;2023-09-18T06:21:54;17.65;80.90
68026;SHT31;54819;48.030;14.710;2023-09-18T06:24:21;17.78;80.49
68026;SHT31;54819;48.030;14.710;2023-09-18T06:26:48;17.94;80.19
68026;SHT31;54819;48.030;14.710;2023-09-18T06:29:14;18.08;79.80
68026;SHT31;54819;48.030;14.710;2023-09-18T06:31:41;18.20;79.63
68026;SHT31;54819;48.030;14.710;2023-09-18T06:34:08;18.29;79.57
68026;SHT31;54819;48.030;14.710;2023-09-18T06:36:35;18.37;79.49
68026;SHT31;54819;48.030;14.710;2023-09-18T06:39:01;18.43;79.41
68026;SHT31;54819;48.030;14.710;2023-09-18T06:41:29;18.43;78.82
68026;SHT31;54819;48.030;14.710;2023-09-18T06:43:56;18.46;78.59
68026;SHT31;54819;48.030;14.710;2023-09-18T06:46:23;18.51;78.67
68026;SHT31;54819;48.030;14.710;2023-09-18T06:48:50;18.57;78.62
68026;SHT31;54819;48.030;14.710;2023-09-18T06:51:18;18.66;78.64
68026;SHT31;54819;48.030;14.710;2023-09-18T06:54:05;18.76;78.49
68026;SHT31;54819;48.030;14.710;2023-09-18T06:56:32;18.89;78.35
68026;SHT31;54819;48.030;14.710;2023-09-18T06:58:58;18.98;78.03
68026;SHT31;54819;48.030;14.710;2023-09-18T07:01:25;19.06;77.76
68026;SHT31;54819;48.030;14.710;2023-09-18T07:03:53;19.11;77.69
68026;SHT31;54819;48.030;14.710;2023-09-18T07:06:20;19.17;77.78
68026;SHT31;54819;48.030;14.710;2023-09-18T07:08:48;19.20;77.74
68026;SHT31;54819;48.030;14.710;2023-09-18T07:11:20;19.28;77.92
68026;SHT31;54819;48.030;14.710;2023-09-18T07:13:49;19.38;77.91
68026;SHT31;54819;48.030;14.710;2023-09-18T07:16:16;19.46;77.51
68026;SHT31;54819;48.030;14.710;2023-09-18T07:18:42;19.55;77.72
68026;SHT31;54819;48.030;14.710;2023-09-18T07:21:09;19.64;77.87
68026;SHT31;54819;48.030;14.710;2023-09-18T07:23:36;19.72;77.79
68026;SHT31;54819;48.030;14.710;2023-09-18T07:26:03;19.81;77.58
68026;SHT31;54819;48.030;14.710;2023-09-18T07:28:30;19.90;77.38
68026;SHT31;54819;48.030;14.710;2023-09-18T07:30:57;20.00;77.30
68026;SHT31;54819;48.030;14.710;2023-09-18T07:33:29;20.09;77.16
68026;SHT31;54819;48.030;14.710;2023-09-18T07:35:56;20.15;76.97
68026;SHT31;54819;48.030;14.710;2023-09-18T07:38:24;20.23;76.26
68026;SHT31;54819;48.030;14.710;2023-09-18T07:40:51;20.30;76.11
68026;SHT31;54819;48.030;14.710;2023-09-18T07:43:18;20.39;76.04
68026;SHT31;54819;48.030;14.710;2023-09-18T07:45:44;20.45;75.61
68026;SHT31;54819;48.030;14.710;2023-09-18T07:48:11;20.55;75.51
68026;SHT31;54819;48.030;14.710;2023-09-18T07:50:39;20.66;75.29
68026;SHT31;54819;48.030;14.710;2023-09-18T07:53:11;20.76;75.07
68026;SHT31;54819;48.030;14.710;2023-09-18T07:55:37;20.86;75.10
68026;SHT31;54819;48.030;14.710;2023-09-18T07:58:04;20.96;75.25
68026;SHT31;54819;48.030;14.710;2023-09-18T08:00:31;21.09;74.97
68026;SHT31;54819;48.030;14.710;2023-09-18T08:02:59;21.21;74.42
68026;SHT31;54819;48.030;14.710;2023-09-18T08:05:27;21.29;74.21
68026;SHT31;54819;48.030;14.710;2023-09-18T08:07:54;21.38;74.06
68026;SHT31;54819;48.030;14.710;2023-09-18T08:10:25;21.46;73.89
68026;SHT31;54819;48.030;14.710;2023-09-18T08:12:52;21.53;73.16
68026;SHT31;54819;48.030;14.710;2023-09-18T08:15:20;21.66;73.07
68026;SHT31;54819;48.030;14.710;2023-09-18T08:17:47;21.82;72.87
68026;SHT31;54819;48.030;14.710;2023-09-18T08:20:19;21.95;72.17
68026;SHT31;54819;48.030;14.710;2023-09-18T08:22:47;22.09;72.33
68026;SHT31;54819;48.030;14.710;2023-09-18T08:25:14;22.22;71.70
68026;SHT31;54819;48.030;14.710;2023-09-18T08:27:42;22.25;71.84
68026;SHT31;54819;48.030;14.710;2023-09-18T08:30:12;22.23;71.61
68026;SHT31;54819;48.030;14.710;2023-09-18T08:32:40;22.21;71.19
68026;SHT31;54819;48.030;14.710;2023-09-18T08:35:09;22.25;71.57
68026;SHT31;54819;48.030;14.710;2023-09-18T08:37:36;22.28;71.29
68026;SHT31;54819;48.030;14.710;2023-09-18T08:40:03;22.30;71.59
68026;SHT31;54819;48.030;14.710;2023-09-18T08:42:42;22.32;71.33
68026;SHT31;54819;48.030;14.710;2023-09-18T08:45:14;22.34;70.95
68026;SHT31;54819;48.030;14.710;2023-09-18T08:47:48;22.33;70.76
68026;SHT31;54819;48.030;14.710;2023-09-18T08:50:17;22.38;71.29
68026;SHT31;54819;48.030;14.710;2023-09-18T08:52:46;22.42;70.88
68026;SHT31;54819;48.030;14.710;2023-09-18T08:55:13;22.43;70.83
68026;SHT31;54819;48.030;14.710;2023-09-18T08:57:41;22.42;70.91
68026;SHT31;54819;48.030;14.710;2023-09-18T09:00:10;22.46;71.00
68026;SHT31;54819;48.030;14.710;2023-09-18T09:02:45;22.56;71.48
68026;SHT31;54819;48.030;14.710;2023-09-18T09:05:15;22.69;71.48
68026;SHT31;54819;48.030;14.710;2023-09-18T09:07:42;22.79;71.41
68026;SHT31;54819;48.030;14.710;2023-09-18T09:10:09;22.81;71.38
68026;SHT31;54819;48.030;14.710;2023-09-18T09:12:55;22.83;71.76
68026;SHT31;54819;48.030;14.710;2023-09-18T09:15:28;22.94;71.35
68026;SHT31;54819;48.030;14.710;2023-09-18T09:18:02;23.04;70.84
68026;SHT31;54819;48.030;14.710;2023-09-18T09:20:34;23.15;70.89
68026;SHT31;54819;48.030;14.710;2023-09-18T09:23:03;23.24;70.50
68026;SHT31;54819;48.030;14.710;2023-09-18T09:25:31;23.30;71.05
68026;SHT31;54819;48.030;14.710;2023-09-18T09:28:00;23.42;71.10
68026;SHT31;54819;48.030;14.710;2023-09-18T09:30:31;23.59;70.74
68026;SHT31;54819;48.030;14.710;2023-09-18T09:32:59;23.65;70.34
68026;SHT31;54819;48.030;14.710;2023-09-18T09:35:27;23.61;70.29
68026;SHT31;54819;48.030;14.710;2023-09-18T09:37:59;23.70;70.19
68026;SHT31;54819;48.030;14.710;2023-09-18T09:40:30;23.80;69.89
68026;SHT31;54819;48.030;14.710;2023-09-18T09:42:57;23.85;70.15
68026;SHT31;54819;48.030;14.710;2023-09-18T09:45:28;23.82;70.33
68026;SHT31;54819;48.030;14.710;2023-09-18T09:48:03;23.86;70.26
68026;SHT31;54819;48.030;14.710;2023-09-18T09:50:33;23.91;70.21
68026;SHT31;54819;48.030;14.710;2023-09-18T09:53:13;23.94;69.36
68026;SHT31;54819;48.030;14.710;2023-09-18T09:55:40;23.93;68.94
68026;SHT31;54819;48.030;14.710;2023-09-18T09:58:08;23.98;69.41
68026;SHT31;54819;48.030;14.710;2023-09-18T10:03:17;24.24;69.34
68026;SHT31;54819;48.030;14.710;2023-09-18T10:05:46;24.32;68.84
68026;SHT31;54819;48.030;14.710;2023-09-18T10:08:17;24.39;68.52
68026;SHT31;54819;48.030;14.710;2023-09-18T10:10:46;24.40;68.01
68026;SHT31;54819;48.030;14.710;2023-09-18T10:13:19;24.36;67.99
68026;SHT31;54819;48.030;14.710;2023-09-18T10:15:50;24.39;68.24
68026;SHT31;54819;48.030;14.710;2023-09-18T10:20:55;24.56;68.26
68026;SHT31;54819;48.030;14.710;2023-09-18T10:23:32;24.65;68.36
68026;SHT31;54819;48.030;14.710;2023-09-18T10:26:11;24.70;68.10
68026;SHT31;54819;48.030;14.710;2023-09-18T10:28:47;24.69;67.66
68026;SHT31;54819;48.030;14.710;2023-09-18T10:31:15;24.75;67.95
68026;SHT31;54819;48.030;14.710;2023-09-18T10:33:42;24.81;67.22
68026;SHT31;54819;48.030;14.710;2023-09-18T10:36:11;24.80;66.91
68026;SHT31;54819;48.030;14.710;2023-09-18T10:38:39;24.83;67.15
68026;SHT31;54819;48.030;14.710;2023-09-18T10:41:06;24.93;67.00
68026;SHT31;54819;48.030;14.710;2023-09-18T10:43:36;24.97;66.63
68026;SHT31;54819;48.030;14.710;2023-09-18T10:46:04;24.96;66.73
68026;SHT31;54819;48.030;14.710;2023-09-18T10:48:31;24.94;66.79
68026;SHT31;54819;48.030;14.710;2023-09-18T10:50:58;24.98;66.97
68026;SHT31;54819;48.030;14.710;2023-09-18T10:53:31;25.01;66.88
68026;SHT31;54819;48.030;14.710;2023-09-18T10:55:58;25.03;66.36
68026;SHT31;54819;48.030;14.710;2023-09-18T10:58:25;25.05;66.64
68026;SHT31;54819;48.030;14.710;2023-09-18T11:00:53;25.09;66.28
68026;SHT31;54819;48.030;14.710;2023-09-18T11:03:22;25.11;66.06
68026;SHT31;54819;48.030;14.710;2023-09-18T11:06:02;25.13;66.05
68026;SHT31;54819;48.030;14.710;2023-09-18T11:08:48;25.15;66.09
68026;SHT31;54819;48.030;14.710;2023-09-18T11:11:18;25.20;66.58
68026;SHT31;54819;48.030;14.710;2023-09-18T11:13:52;25.27;66.61
68026;SHT31;54819;48.030;14.710;2023-09-18T11:21:26;25.44;66.79
68026;SHT31;54819;48.030;14.710;2023-09-18T11:24:07;25.52;67.03
68026;SHT31;54819;48.030;14.710;2023-09-18T11:26:42;25.59;67.11
68026;SHT31;54819;48.030;14.710;2023-09-18T11:29:13;25.67;66.88
68026;SHT31;54819;48.030;14.710;2023-09-18T11:31:44;25.74;66.79
68026;SHT31;54819;48.030;14.710;2023-09-18T11:34:26;25.82;66.41
68026;SHT31;54819;48.030;14.710;2023-09-18T11:36:58;25.87;65.89
68026;SHT31;54819;48.030;14.710;2023-09-18T11:39:38;25.91;65.71
68026;SHT31;54819;48.030;14.710;2023-09-18T11:42:12;25.95;65.75
68026;SHT31;54819;48.030;14.710;2023-09-18T11:44:42;26.00;65.65
68026;SHT31;54819;48.030;14.710;2023-09-18T11:47:16;26.08;65.31
68026;SHT31;54819;48.030;14.710;2023-09-18T11:52:23;26.13;64.98
68026;SHT31;54819;48.030;14.710;2023-09-18T11:54:51;26.14;65.41
68026;SHT31;54819;48.030;14.710;2023-09-18T11:57:19;26.16;64.91
68026;SHT31;54819;48.030;14.710;2023-09-18T11:59:46;26.21;65.02
68026;SHT31;54819;48.030;14.710;2023-09-18T12:02:13;26.29;64.97
68026;SHT31;54819;48.030;14.710;2023-09-18T12:04:55;26.40;65.30
68026;SHT31;54819;48.030;14.710;2023-09-18T12:07:22;26.46;65.07
68026;SHT31;54819;48.030;14.710;2023-09-18T12:09:51;26.51;65.04
68026;SHT31;54819;48.030;14.710;2023-09-18T12:12:18;26.58;64.93
68026;SHT31;54819;48.030;14.710;2023-09-18T12:14:44;26.65;64.54
68026;SHT31;54819;48.030;14.710;2023-09-18T12:17:15;26.70;64.63
68026;SHT31;54819;48.030;14.710;2023-09-18T12:19:52;26.80;64.74
68026;SHT31;54819;48.030;14.710;2023-09-18T12:22:24;26.92;65.16
68026;SHT31;54819;48.030;14.710;2023-09-18T12:25:07;27.04;64.52
68026;SHT31;54819;48.030;14.710;2023-09-18T12:27:43;27.11;63.65
68026;SHT31;54819;48.030;14.710;2023-09-18T12:30:10;27.12;62.34
68026;SHT31;54819;48.030;14.710;2023-09-18T12:32:48;27.21;62.85
68026;SHT31;54819;48.030;14.710;2023-09-18T12:35:18;27.32;63.49
68026;SHT31;54819;48.030;14.710;2023-09-18T12:37:45;27.44;63.33
68026;SHT31;54819;48.030;14.710;2023-09-18T12:42:49;27.50;62.40
68026;SHT31;54819;48.030;14.710;2023-09-18T12:45:17;27.51;62.28
68026;SHT31;54819;48.030;14.710;2023-09-18T12:47:44;27.54;62.25
68026;SHT31;54819;48.030;14.710;2023-09-18T12:50:12;27.60;61.83
68026;SHT31;54819;48.030;14.710;2023-09-18T12:52:40;27.57;61.59
68026;SHT31;54819;48.030;14.710;2023-09-18T12:55:08;27.52;61.69
68026;SHT31;54819;48.030;14.710;2023-09-18T12:57:35;27.51;62.11
68026;SHT31;54819;48.030;14.710;2023-09-18T13:00:08;27.58;62.11
68026;SHT31;54819;48.030;14.710;2023-09-18T13:02:39;27.64;61.97
68026;SHT31;54819;48.030;14.710;2023-09-18T13:05:06;27.64;61.75
68026;SHT31;54819;48.030;14.710;2023-09-18T13:07:42;27.56;61.29
68026;SHT31;54819;48.030;14.710;2023-09-18T13:10:11;27.53;61.81
68026;SHT31;54819;48.030;14.710;2023-09-18T13:12:46;27.65;61.89
68026;SHT31;54819;48.030;14.710;2023-09-18T13:15:27;27.69;60.73
68026;SHT31;54819;48.030;14.710;2023-09-18T13:17:58;27.70;61.66
68026;SHT31;54819;48.030;14.710;2023-09-18T13:20:27;27.77;62.01
68026;SHT31;54819;48.030;14.710;2023-09-18T13:22:57;27.82;62.12
68026;SHT31;54819;48.030;14.710;2023-09-18T13:25:33;27.86;61.88
68026;SHT31;54819;48.030;14.710;2023-09-18T13:28:05;27.90;61.71
68026;SHT31;54819;48.030;14.710;2023-09-18T13:30:33;27.93;61.42
68026;SHT31;54819;48.030;14.710;2023-09-18T13:33:02;28.01;61.65
68026;SHT31;54819;48.030;14.710;2023-09-18T13:35:33;28.06;61.41
68026;SHT31;54819;48.030;14.710;2023-09-18T13:38:01;28.12;60.99
68026;SHT31;54819;48.030;14.710;2023-09-18T13:40:32;28.14;60.45
68026;SHT31;54819;48.030;14.710;2023-09-18T13:43:05;28.13;60.72
68026;SHT31;54819;48.030;14.710;2023-09-18T13:45:33;28.08;60.60
68026;SHT31;54819;48.030;14.710;2023-09-18T13:48:03;28.07;60.89
68026;SHT31;54819;48.030;14.710;2023-09-18T13:50:31;28.05;60.44
68026;SHT31;54819;48.030;14.710;2023-09-18T13:52:59;28.01;60.18
68026;SHT31;54819;48.030;14.710;2023-09-18T13:55:30;27.93;59.67
68026;SHT31;54819;48.030;14.710;2023-09-18T13:57:57;27.79;59.33
68026;SHT31;54819;48.030;14.710;2023-09-18T14:00:24;27.63;58.66
68026;SHT31;54819;48.030;14.710;2023-09-18T14:02:52;27.54;58.67
68026;SHT31;54819;48.030;14.710;2023-09-18T14:05:19;27.45;58.64
68026;SHT31;54819;48.030;14.710;2023-09-18T14:07:46;27.41;59.01
68026;SHT31;54819;48.030;14.710;2023-09-18T14:10:14;27.42;59.21
68026;SHT31;54819;48.030;14.710;2023-09-18T14:12:41;27.42;58.92
68026;SHT31;54819;48.030;14.710;2023-09-18T14:15:09;27.44;59.28
68026;SHT31;54819;48.030;14.710;2023-09-18T14:17:37;27.43;59.78
68026;SHT31;54819;48.030;14.710;2023-09-18T14:20:05;27.42;59.85
68026;SHT31;54819;48.030;14.710;2023-09-18T14:22:33;27.40;59.91
68026;SHT31;54819;48.030;14.710;2023-09-18T14:25:02;27.34;60.33
68026;SHT31;54819;48.030;14.710;2023-09-18T14:27:33;27.32;60.24
68026;SHT31;54819;48.030;14.710;2023-09-18T14:30:04;27.30;60.51
68026;SHT31;54819;48.030;14.710;2023-09-18T14:32:34;27.33;60.64
68026;SHT31;54819;48.030;14.710;2023-09-18T14:35:03;27.34;60.60
68026;SHT31;54819;48.030;14.710;2023-09-18T14:37:35;27.34;60.37
68026;SHT31;54819;48.030;14.710;2023-09-18T14:40:03;27.29;60.22
68026;SHT31;54819;48.030;14.710;2023-09-18T14:42:30;27.32;60.41
68026;SHT31;54819;48.030;14.710;2023-09-18T14:44:57;27.28;59.13
68026;SHT31;54819;48.030;14.710;2023-09-18T14:47:23;27.17;57.95
68026;SHT31;54819;48.030;14.710;2023-09-18T14:49:51;27.08;57.58
68026;SHT31;54819;48.030;14.710;2023-09-18T14:52:17;26.97;57.35
68026;SHT31;54819;48.030;14.710;2023-09-18T14:54:45;26.86;57.44
68026;SHT31;54819;48.030;14.710;2023-09-18T14:57:13;26.70;57.40
68026;SHT31;54819;48.030;14.710;2023-09-18T14:59:40;26.50;58.04
68026;SHT31;54819;48.030;14.710;2023-09-18T15:02:09;26.32;58.75
68026;SHT31;54819;48.030;14.710;2023-09-18T15:04:36;26.14;59.26
68026;SHT31;54819;48.030;14.710;2023-09-18T15:07:03;25.99;59.81
68026;SHT31;54819;48.030;14.710;2023-09-18T15:09:30;25.87;60.26
68026;SHT31;54819;48.030;14.710;2023-09-18T15:11:57;25.76;60.65
68026;SHT31;54819;48.030;14.710;2023-09-18T15:14:24;25.66;61.08
68026;SHT31;54819;48.030;14.710;2023-09-18T15:16:51;25.57;61.39
68026;SHT31;54819;48.030;14.710;2023-09-18T15:19:18;25.47;61.55
68026;SHT31;54819;48.030;14.710;2023-09-18T15:21:46;25.37;62.08
68026;SHT31;54819;48.030;14.710;2023-09-18T15:24:13;25.30;62.40
68026;SHT31;54819;48.030;14.710;2023-09-18T15:26:40;25.25;62.53
68026;SHT31;54819;48.030;14.710;2023-09-18T15:29:07;25.20;62.53
68026;SHT31;54819;48.030;14.710;2023-09-18T15:31:35;25.16;62.62
68026;SHT31;54819;48.030;14.710;2023-09-18T15:34:02;25.12;62.74
68026;SHT31;54819;48.030;14.710;2023-09-18T15:36:30;25.08;62.76
68026;SHT31;54819;48.030;14.710;2023-09-18T15:38:58;25.09;62.79
68026;SHT31;54819;48.030;14.710;2023-09-18T15:41:26;25.10;62.77